createdAt,value
2023-05-04T00:02:21.377Z,62.24
2023-05-04T00:05:12.312Z,62.06
2023-05-04T00:08:01.540Z,62.15
2023-05-04T00:10:50.736Z,62.04
2023-05-04T00:13:41.470Z,61.83
2023-05-04T00:16:30.913Z,61.80
2023-05-04T00:19:20.610Z,61.80
2023-05-04T00:22:10.001Z,61.77
2023-05-04T00:24:59.568Z,61.44
2023-05-04T00:27:48.868Z,61.50
2023-05-04T00:30:39.562Z,61.32
2023-05-04T00:33:28.984Z,61.34
2023-05-04T00:36:18.373Z,61.14
2023-05-04T00:39:07.575Z,61.24
2023-05-04T00:41:57.186Z,61.17
2023-05-04T00:44:46.423Z,61.45
2023-05-04T00:47:37.794Z,61.20
2023-05-04T00:50:28.214Z,61.21
2023-05-04T00:53:17.621Z,61.12
2023-05-04T00:56:09.146Z,61.35
2023-05-04T00:58:59.241Z,61.02
2023-05-04T01:01:48.475Z,61.42
2023-05-04T01:04:39.295Z,61.39
2023-05-04T01:07:36.319Z,61.28
2023-05-04T01:10:35.536Z,61.10
2023-05-04T01:13:25.891Z,61.46
2023-05-04T01:16:15.741Z,61.41
2023-05-04T01:19:05.310Z,61.53
2023-05-04T01:21:56.536Z,61.46
2023-05-04T01:24:46.620Z,62.09
2023-05-04T01:27:43.973Z,61.60
2023-05-04T01:30:39.101Z,61.67
2023-05-04T01:33:30.522Z,62.09
2023-05-04T01:36:21.081Z,61.96
2023-05-04T01:39:11.827Z,61.69
2023-05-04T01:42:02.203Z,61.86
2023-05-04T01:44:51.888Z,62.12
2023-05-04T01:47:41.182Z,61.92
2023-05-04T01:50:30.817Z,62.36
2023-05-04T01:53:20.498Z,62.58
2023-05-04T01:56:11.385Z,62.46
2023-05-04T01:59:00.673Z,62.66
2023-05-04T02:01:50.104Z,62.67
2023-05-04T02:04:39.511Z,62.95
2023-05-04T02:07:28.817Z,63.09
2023-05-04T02:10:18.406Z,63.04
2023-05-04T02:13:09.286Z,63.45
2023-05-04T02:15:58.741Z,63.39
2023-05-04T02:18:48.040Z,64.01
2023-05-04T02:21:38.736Z,63.42
2023-05-04T02:24:28.450Z,63.70
2023-05-04T02:27:17.727Z,63.58
2023-05-04T02:30:10.976Z,64.15
2023-05-04T02:33:00.327Z,64.12
2023-05-04T02:35:49.770Z,64.78
2023-05-04T02:38:39.012Z,64.41
2023-05-04T02:41:28.544Z,64.93
2023-05-04T02:44:17.838Z,64.70
2023-05-04T02:47:08.555Z,64.62
2023-05-04T02:49:57.806Z,64.26
2023-05-04T02:52:47.032Z,64.67
2023-05-04T02:55:36.378Z,64.70
2023-05-04T02:58:25.796Z,64.60
2023-05-04T03:01:15.163Z,65.32
2023-05-04T03:04:07.168Z,64.77
2023-05-04T03:06:56.469Z,65.08
2023-05-04T03:09:47.752Z,65.23
2023-05-04T03:12:37.428Z,65.09
2023-05-04T03:15:27.058Z,65.43
2023-05-04T03:18:16.571Z,65.68
2023-05-04T03:21:08.061Z,65.65
2023-05-04T03:23:59.616Z,65.62
2023-05-04T03:26:49.853Z,65.93
2023-05-04T03:29:39.614Z,66.88
2023-05-04T03:32:29.077Z,67.56
2023-05-04T03:35:24.273Z,68.57
2023-05-04T03:38:16.837Z,68.99
2023-05-04T03:41:06.277Z,69.65
2023-05-04T03:43:55.552Z,69.60
2023-05-04T03:46:44.957Z,70.57
2023-05-04T03:49:35.530Z,70.99
2023-05-04T03:52:24.800Z,71.62
2023-05-04T03:55:15.585Z,71.96
2023-05-04T03:58:08.116Z,71.97
2023-05-04T04:00:57.635Z,72.22
2023-05-04T04:03:47.454Z,73.10
2023-05-04T04:06:36.868Z,73.59
2023-05-04T04:09:26.202Z,73.45
2023-05-04T04:12:18.531Z,74.24
2023-05-04T04:15:09.577Z,74.49
2023-05-04T04:17:58.862Z,74.19
2023-05-04T04:20:48.403Z,74.19
2023-05-04T04:23:37.716Z,73.46
2023-05-04T04:26:27.238Z,74.39
2023-05-04T04:29:18.177Z,73.84
2023-05-04T04:32:08.652Z,73.99
2023-05-04T04:34:58.272Z,74.02
2023-05-04T04:37:47.555Z,73.76
2023-05-04T04:40:37.554Z,73.26
2023-05-04T04:43:27.007Z,73.17
2023-05-04T04:46:17.631Z,73.09
2023-05-04T04:49:07.332Z,73.44
2023-05-04T04:51:57.082Z,73.02
2023-05-04T04:54:46.736Z,73.09
2023-05-04T04:57:35.964Z,73.06
2023-05-04T05:00:26.287Z,73.09
2023-05-04T05:03:17.305Z,72.99
2023-05-04T05:06:06.599Z,73.27
2023-05-04T05:08:55.976Z,73.30
2023-05-04T05:11:45.261Z,73.31
2023-05-04T05:14:35.372Z,73.18
2023-05-04T05:17:24.791Z,73.64
2023-05-04T05:20:15.550Z,73.57
2023-05-04T05:23:05.438Z,73.20
2023-05-04T05:25:56.002Z,73.62
2023-05-04T05:28:45.468Z,73.54
2023-05-04T05:31:34.895Z,73.05
2023-05-04T05:34:24.271Z,73.28
2023-05-04T05:37:15.033Z,73.51
2023-05-04T05:40:07.988Z,73.42
2023-05-04T05:42:57.228Z,73.71
2023-05-04T05:45:46.520Z,73.37
2023-05-04T05:48:36.162Z,73.65
2023-05-04T05:51:25.484Z,73.24
2023-05-04T05:54:16.626Z,73.29
2023-05-04T05:57:05.893Z,73.09
2023-05-04T05:59:55.360Z,73.27
2023-05-04T06:02:44.704Z,72.97
2023-05-04T06:05:36.076Z,73.40
2023-05-04T06:08:25.377Z,73.35
2023-05-04T06:11:16.047Z,73.23
2023-05-04T06:14:05.264Z,73.66
2023-05-04T06:16:54.668Z,73.81
2023-05-04T06:19:43.903Z,73.63
2023-05-04T06:22:33.728Z,74.00
2023-05-04T06:25:22.973Z,73.75
2023-05-04T06:28:13.541Z,73.45
2023-05-04T06:31:03.712Z,73.61
2023-05-04T06:33:53.083Z,73.49
2023-05-04T06:36:42.466Z,73.50
2023-05-04T06:39:31.796Z,73.14
2023-05-04T06:42:21.052Z,73.01
2023-05-04T06:45:13.860Z,72.22
2023-05-04T06:48:03.205Z,71.41
2023-05-04T06:50:52.528Z,71.02
2023-05-04T06:53:41.804Z,71.31
2023-05-04T06:56:31.205Z,70.52
2023-05-04T06:59:20.794Z,69.51
2023-05-04T07:02:11.516Z,69.42
2023-05-04T07:05:00.856Z,68.57
2023-05-04T07:07:51.375Z,67.67
2023-05-04T07:10:41.408Z,66.52
2023-05-04T07:13:30.823Z,66.00
2023-05-04T07:16:20.035Z,65.36
2023-05-04T07:19:10.908Z,64.21
2023-05-04T07:22:00.875Z,64.44
2023-05-04T07:24:50.224Z,64.35
2023-05-04T07:27:39.926Z,64.31
2023-05-04T07:30:29.415Z,64.08
2023-05-04T07:33:18.877Z,63.62
2023-05-04T07:36:10.142Z,63.86
2023-05-04T07:38:59.414Z,63.98
2023-05-04T07:41:51.673Z,64.06
2023-05-04T07:44:41.466Z,64.32
2023-05-04T07:47:30.855Z,64.26
2023-05-04T07:50:20.925Z,64.23
2023-05-04T07:53:11.687Z,64.20
2023-05-04T07:56:10.421Z,64.34
2023-05-04T07:58:59.845Z,64.18
2023-05-04T08:01:49.188Z,63.63
2023-05-04T08:04:38.494Z,63.29
2023-05-04T08:07:28.458Z,62.63
2023-05-04T08:10:19.324Z,62.98
2023-05-04T08:13:09.027Z,63.35
2023-05-04T08:16:01.380Z,63.44
2023-05-04T08:18:50.841Z,63.84
2023-05-04T08:21:41.000Z,63.99
2023-05-04T08:24:31.619Z,63.47
2023-05-04T08:27:22.476Z,63.89
2023-05-04T08:30:12.551Z,63.37
2023-05-04T08:33:01.839Z,63.25
2023-05-04T08:35:51.810Z,62.80
2023-05-04T08:38:41.252Z,62.12
2023-05-04T08:41:30.935Z,61.96
2023-05-04T08:44:23.263Z,62.21
2023-05-04T08:47:12.530Z,62.29
2023-05-04T08:50:02.062Z,62.26
2023-05-04T08:52:53.685Z,62.14
2023-05-04T08:55:45.252Z,61.71
2023-05-04T08:58:38.135Z,61.55
2023-05-04T09:01:29.697Z,60.99
2023-05-04T09:04:20.189Z,61.54
2023-05-04T09:07:09.504Z,61.26
2023-05-04T09:09:59.806Z,61.00
2023-05-04T09:12:50.426Z,61.43
2023-05-04T09:15:39.694Z,60.69
2023-05-04T09:18:40.824Z,59.19
2023-05-04T09:21:31.420Z,59.52
2023-05-04T09:24:30.655Z,59.45
2023-05-04T09:27:19.956Z,59.54
2023-05-04T09:30:11.467Z,59.36
2023-05-04T09:33:01.012Z,59.26
2023-05-04T09:35:51.773Z,59.38
2023-05-04T09:38:41.507Z,59.45
2023-05-04T09:41:34.662Z,59.08
2023-05-04T09:44:29.469Z,59.05
2023-05-04T09:47:19.178Z,57.94
2023-05-04T09:50:19.835Z,57.06
2023-05-04T09:53:12.061Z,57.15
2023-05-04T09:56:11.757Z,57.11
2023-05-04T09:59:01.290Z,57.42
2023-05-04T10:01:51.540Z,57.54
2023-05-04T10:04:43.271Z,57.46
2023-05-04T10:07:33.074Z,57.51
2023-05-04T10:10:24.056Z,58.22
2023-05-04T10:13:13.943Z,57.97
2023-05-04T10:16:24.620Z,55.73
2023-05-04T10:19:40.862Z,55.56
2023-05-04T10:22:53.618Z,55.20
2023-05-04T10:26:33.421Z,55.88
2023-05-04T10:29:25.135Z,56.77
2023-05-04T10:32:22.223Z,56.90
2023-05-04T10:35:12.641Z,57.44
2023-05-04T10:38:02.273Z,57.87
2023-05-04T10:40:53.792Z,58.26
2023-05-04T10:43:49.140Z,59.05
2023-05-04T10:46:38.734Z,59.52
2023-05-04T10:49:28.036Z,60.04
2023-05-04T10:52:18.306Z,60.11
2023-05-04T10:55:09.115Z,60.27
2023-05-04T10:57:58.857Z,60.53
2023-05-04T11:00:51.789Z,60.60
2023-05-04T11:03:41.854Z,61.08
2023-05-04T11:06:31.388Z,61.03
2023-05-04T11:09:21.038Z,61.19
2023-05-04T11:12:11.578Z,61.49
2023-05-04T11:15:11.399Z,61.57
2023-05-04T11:18:02.080Z,61.85
2023-05-04T11:20:51.275Z,61.88
2023-05-04T11:23:40.586Z,62.42
2023-05-04T11:26:30.100Z,62.89
2023-05-04T11:29:20.452Z,63.52
2023-05-04T11:32:09.766Z,64.06
2023-05-04T11:35:00.508Z,63.91
2023-05-04T11:37:50.729Z,63.97
2023-05-04T11:40:41.387Z,63.96
2023-05-04T11:43:31.826Z,64.30
2023-05-04T11:46:21.434Z,64.38
2023-05-04T11:49:10.808Z,64.64
2023-05-04T11:52:09.183Z,65.07
2023-05-04T11:54:59.057Z,65.05
2023-05-04T11:57:59.059Z,65.10
2023-05-04T12:00:50.082Z,65.53
2023-05-04T12:03:53.003Z,65.48
2023-05-04T12:06:43.519Z,65.28
2023-05-04T12:09:44.657Z,65.74
2023-05-04T12:12:37.700Z,65.50
2023-05-04T12:15:31.470Z,65.75
2023-05-04T12:18:29.772Z,65.71
2023-05-04T12:21:21.630Z,65.32
2023-05-04T12:24:11.242Z,65.59
2023-05-04T12:27:02.280Z,65.13
2023-05-04T12:29:51.780Z,65.09
2023-05-04T12:32:41.231Z,64.88
2023-05-04T12:35:30.854Z,64.93
2023-05-04T12:38:20.570Z,64.02
2023-05-04T12:41:11.077Z,63.77
2023-05-04T12:44:01.852Z,63.19
2023-05-04T12:46:51.694Z,62.63
2023-05-04T12:49:41.060Z,62.72
2023-05-04T12:52:30.428Z,62.53
2023-05-04T12:55:19.717Z,62.58
2023-05-04T12:58:09.069Z,62.19
2023-05-04T13:01:00.266Z,61.99
2023-05-04T13:03:49.725Z,61.45
2023-05-04T13:06:39.333Z,61.69
2023-05-04T13:09:28.994Z,61.64
2023-05-04T13:12:18.469Z,60.97
2023-05-04T13:15:09.530Z,59.77
2023-05-04T13:18:00.370Z,59.70
2023-05-04T13:20:50.762Z,59.72
2023-05-04T13:23:40.086Z,59.52
2023-05-04T13:26:29.474Z,59.11
2023-05-04T13:29:18.773Z,59.06
2023-05-04T13:32:08.064Z,58.83
2023-05-04T13:34:58.932Z,58.50
2023-05-04T13:37:48.358Z,57.16
2023-05-04T13:40:37.730Z,56.68
2023-05-04T13:43:30.698Z,55.81
2023-05-04T13:46:20.292Z,55.55
2023-05-04T13:49:09.657Z,55.61
2023-05-04T13:52:00.707Z,55.53
2023-05-04T13:54:50.140Z,54.79
2023-05-04T13:57:39.787Z,54.70
2023-05-04T14:00:29.119Z,54.01
2023-05-04T14:03:18.527Z,53.04
2023-05-04T14:06:08.402Z,52.29
2023-05-04T14:08:59.020Z,51.63
2023-05-04T14:11:48.707Z,50.14
2023-05-04T14:14:38.162Z,48.99
2023-05-04T14:17:27.445Z,48.16
2023-05-04T14:20:17.294Z,48.87
2023-05-04T14:23:06.528Z,49.51
2023-05-04T14:25:57.281Z,50.28
2023-05-04T14:28:46.616Z,51.58
2023-05-04T14:31:35.828Z,52.45
2023-05-04T14:34:25.711Z,53.59
2023-05-04T14:37:15.101Z,54.42
2023-05-04T14:40:06.537Z,55.48
2023-05-04T14:42:59.749Z,56.16
2023-05-04T14:45:48.855Z,56.73
2023-05-04T14:48:38.281Z,57.18
2023-05-04T14:51:30.163Z,57.27
2023-05-04T14:54:19.685Z,57.64
2023-05-04T14:57:09.362Z,57.77
2023-05-04T15:00:00.054Z,57.67
2023-05-04T15:02:49.540Z,58.05
2023-05-04T15:05:38.964Z,58.47
2023-05-04T15:08:28.185Z,58.45
2023-05-04T15:11:19.312Z,58.07
2023-05-04T15:14:08.678Z,57.90
2023-05-04T15:16:59.471Z,58.29
2023-05-04T15:19:48.760Z,58.19
2023-05-04T15:22:38.050Z,58.55
2023-05-04T15:25:27.558Z,58.67
2023-05-04T15:28:16.777Z,58.60
2023-05-04T15:31:07.502Z,59.00
2023-05-04T15:33:58.184Z,58.84
2023-05-04T15:36:47.830Z,59.72
2023-05-04T15:39:37.339Z,59.93
2023-05-04T15:42:26.763Z,60.62
2023-05-04T15:45:16.525Z,60.80
2023-05-04T15:48:06.563Z,61.30
2023-05-04T15:50:57.372Z,61.91
2023-05-04T15:53:46.851Z,62.34
2023-05-04T15:56:36.605Z,62.94
2023-05-04T15:59:25.885Z,63.64
2023-05-04T16:02:15.096Z,64.08
2023-05-04T16:05:04.831Z,63.90
2023-05-04T16:07:55.882Z,65.09
2023-05-04T16:10:45.125Z,65.11
2023-05-04T16:13:35.265Z,65.28
2023-05-04T16:16:26.697Z,65.74
2023-05-04T16:19:16.054Z,66.08
2023-05-04T16:22:05.360Z,66.04
2023-05-04T16:24:56.108Z,66.00
2023-05-04T16:27:45.514Z,66.22
2023-05-04T16:30:35.392Z,66.13
2023-05-04T16:33:26.833Z,65.90
2023-05-04T16:36:16.158Z,66.51
2023-05-04T16:39:05.780Z,66.01
2023-05-04T16:41:56.431Z,66.57
2023-05-04T16:44:45.967Z,66.64
2023-05-04T16:47:35.328Z,66.51
2023-05-04T16:50:24.767Z,66.58
2023-05-04T16:53:14.285Z,66.89
2023-05-04T16:56:03.666Z,66.95
2023-05-04T16:58:54.349Z,67.44
2023-05-04T17:01:44.091Z,69.34
2023-05-04T17:04:33.440Z,69.44
2023-05-04T17:07:22.825Z,70.25
2023-05-04T17:10:13.702Z,70.86
2023-05-04T17:13:02.998Z,71.92
2023-05-04T17:15:53.721Z,72.54
2023-05-04T17:18:43.022Z,72.96
2023-05-04T17:21:32.971Z,72.57
2023-05-04T17:24:22.222Z,73.41
2023-05-04T17:27:11.595Z,74.25
2023-05-04T17:30:00.848Z,75.22
2023-05-04T17:32:52.589Z,76.78
2023-05-04T17:35:41.980Z,77.75
2023-05-04T17:38:31.229Z,77.91
2023-05-04T17:41:20.755Z,78.55
2023-05-04T17:44:10.380Z,78.85
2023-05-04T17:47:00.312Z,80.49
2023-05-04T17:49:51.283Z,80.96
2023-05-04T17:52:40.678Z,81.25
2023-05-04T17:55:30.217Z,81.70
2023-05-04T17:58:19.503Z,82.68
2023-05-04T18:01:08.799Z,83.38
2023-05-04T18:03:58.624Z,84.91
2023-05-04T18:06:50.790Z,84.50
2023-05-04T18:09:40.357Z,85.24
2023-05-04T18:12:29.640Z,85.56
2023-05-04T18:15:19.054Z,86.03
2023-05-04T18:18:08.337Z,86.97
2023-05-04T18:21:00.922Z,86.97
2023-05-04T18:23:51.950Z,88.13
2023-05-04T18:26:41.258Z,87.80
2023-05-04T18:29:31.029Z,88.70
2023-05-04T18:32:20.434Z,89.00
2023-05-04T18:35:10.789Z,89.49
2023-05-04T18:38:00.156Z,89.10
2023-05-04T18:40:54.566Z,89.86
2023-05-04T18:43:43.916Z,89.80
2023-05-04T18:46:33.215Z,90.06
2023-05-04T18:49:22.645Z,90.30
2023-05-04T18:52:12.108Z,90.65
2023-05-04T18:55:01.420Z,91.51
2023-05-04T18:57:52.311Z,91.47
2023-05-04T19:00:43.703Z,91.47
2023-05-04T19:03:33.801Z,92.10
2023-05-04T19:06:23.054Z,92.38
2023-05-04T19:09:14.465Z,92.38
2023-05-04T19:12:04.064Z,92.41
2023-05-04T19:14:55.914Z,92.58
2023-05-04T19:17:45.205Z,92.62
2023-05-04T19:20:34.568Z,92.66
2023-05-04T19:23:25.044Z,92.65
2023-05-04T19:26:14.225Z,92.20
2023-05-04T19:29:03.754Z,92.15
2023-05-04T19:31:54.424Z,92.17
2023-05-04T19:34:44.087Z,92.03
2023-05-04T19:37:34.042Z,92.24
2023-05-04T19:40:23.447Z,92.65
2023-05-04T19:43:12.717Z,92.94
2023-05-04T19:46:03.743Z,92.80
2023-05-04T19:48:54.726Z,92.90
2023-05-04T19:51:43.949Z,93.06
2023-05-04T19:54:34.202Z,93.24
2023-05-04T19:57:23.666Z,93.21
2023-05-04T20:00:17.213Z,92.90
2023-05-04T20:03:07.853Z,93.27
2023-05-04T20:05:58.691Z,93.12
2023-05-04T20:08:47.952Z,93.11
2023-05-04T20:11:38.267Z,92.98
2023-05-04T20:14:27.681Z,93.00
2023-05-04T20:17:17.109Z,93.08
2023-05-04T20:20:08.731Z,92.93
2023-05-04T20:22:59.652Z,93.52
2023-05-04T20:25:48.964Z,93.65
2023-05-04T20:28:38.222Z,93.63
2023-05-04T20:31:27.610Z,94.52
2023-05-04T20:34:18.895Z,94.21
2023-05-04T20:37:08.435Z,93.91
2023-05-04T20:39:59.137Z,93.84
2023-05-04T20:42:48.522Z,94.02
2023-05-04T20:45:37.735Z,94.21
2023-05-04T20:48:27.070Z,94.62
2023-05-04T20:51:16.353Z,94.69
2023-05-04T20:54:05.858Z,94.62
2023-05-04T20:56:56.472Z,94.27
2023-05-04T20:59:45.636Z,94.58
2023-05-04T21:02:35.271Z,94.71
2023-05-04T21:05:24.828Z,94.38
2023-05-04T21:08:14.128Z,95.01
2023-05-04T21:11:03.386Z,94.67
2023-05-04T21:13:54.686Z,94.94
2023-05-04T21:16:43.942Z,95.11
2023-05-04T21:19:33.211Z,95.30
2023-05-04T21:22:22.453Z,95.85
2023-05-04T21:25:11.652Z,96.01
2023-05-04T21:28:00.915Z,96.54
2023-05-04T21:30:51.601Z,96.25
2023-05-04T21:33:40.969Z,96.12
2023-05-04T21:36:30.233Z,96.21
2023-05-04T21:39:19.464Z,96.66
2023-05-04T21:42:08.779Z,96.78
2023-05-04T21:44:58.487Z,96.82
2023-05-04T21:47:49.231Z,96.86
2023-05-04T21:50:38.566Z,96.62
2023-05-04T21:53:33.166Z,96.86
2023-05-04T21:56:22.525Z,96.49
2023-05-04T21:59:12.018Z,97.16
2023-05-04T22:02:01.658Z,97.24
2023-05-04T22:04:52.717Z,96.98
2023-05-04T22:07:41.999Z,97.17
2023-05-04T22:10:31.480Z,97.28
2023-05-04T22:13:21.386Z,97.19
2023-05-04T22:16:10.751Z,97.11
2023-05-04T22:19:00.664Z,97.39
2023-05-04T22:21:51.324Z,97.64
2023-05-04T22:24:40.764Z,97.13
2023-05-04T22:27:30.209Z,97.55
2023-05-04T22:30:21.520Z,97.37
2023-05-04T22:33:10.792Z,97.41
2023-05-04T22:36:00.168Z,97.78
2023-05-04T22:38:52.872Z,97.72
2023-05-04T22:41:42.140Z,96.66
2023-05-04T22:44:31.484Z,96.15
2023-05-04T22:47:20.821Z,96.18
2023-05-04T22:50:11.621Z,96.28
2023-05-04T22:53:00.930Z,96.43
2023-05-04T22:55:51.752Z,96.28
2023-05-04T22:58:41.018Z,96.06
2023-05-04T23:01:31.011Z,96.29
2023-05-04T23:04:20.880Z,96.23
2023-05-04T23:07:10.672Z,96.47
2023-05-04T23:10:00.289Z,96.27
2023-05-04T23:12:53.193Z,96.32
2023-05-04T23:15:42.535Z,96.13
2023-05-04T23:18:33.344Z,96.51
2023-05-04T23:21:22.871Z,96.40
2023-05-04T23:24:12.485Z,96.51
2023-05-04T23:27:02.316Z,96.29
2023-05-04T23:29:53.393Z,96.47
2023-05-04T23:32:42.638Z,96.74
2023-05-04T23:35:32.858Z,96.62
2023-05-04T23:38:22.893Z,96.50
2023-05-04T23:41:12.746Z,96.51
2023-05-04T23:44:02.146Z,96.42
2023-05-04T23:46:52.746Z,96.79
2023-05-04T23:49:42.025Z,96.73
2023-05-04T23:52:31.559Z,96.86
2023-05-04T23:55:21.176Z,96.77
2023-05-04T23:58:10.414Z,96.77
